Time;durP1;ratioP1;P1;durP2;ratioP2;P2;SDS_P1;SDS_P2;PMS_P1;PMS_P2;Temp;Humidity;BMP_temperature;BMP_pressure;BME280_temperature;BME280_humidity;BME280_pressure;Samples;Min_cycle;Max_cycle;Signal;HPM_P1;HPM_P2
2023/05/14 00:01:27;;;;;;;42.45;17.15;;;9.50;99.90;;;;;;4997888;28;20185;-83
2023/05/14 00:03:53;;;;;;;40.78;17.95;;;;;;;;;;5014190;28;20296;-84
2023/05/14 00:06:18;;;;;;;49.30;18.77;;;9.50;99.90;;;;;;5014301;28;20193;-83
2023/05/14 00:08:44;;;;;;;39.13;16.50;;;9.40;99.90;;;;;;5015500;28;20592;-83
2023/05/14 00:11:10;;;;;;;47.35;16.98;;;;;;;;;;4997599;28;20189;-83
2023/05/14 00:13:36;;;;;;;40.15;16.50;;;9.40;99.90;;;;;;5014154;28;20274;-83
2023/05/14 00:16:02;;;;;;;44.33;18.20;;;9.40;99.90;;;;;;5013502;28;20216;-83
2023/05/14 00:18:28;;;;;;;48.60;16.80;;;9.40;99.90;;;;;;5014115;28;20185;-83
2023/05/14 00:20:53;;;;;;;41.65;18.73;;;9.30;99.90;;;;;;5013719;28;20248;-83
2023/05/14 00:23:22;;;;;;;38.80;17.00;;;9.30;99.90;;;;;;4997751;28;20213;-82
2023/05/14 00:25:48;;;;;;;38.42;15.93;;;9.20;99.90;;;;;;5030165;28;20199;-82
2023/05/14 00:28:15;;;;;;;47.13;17.48;;;9.20;99.90;;;;;;5015141;28;20185;-82
2023/05/14 00:30:41;;;;;;;40.20;17.47;;;9.20;99.90;;;;;;5013511;28;20185;-83
2023/05/14 00:33:07;;;;;;;44.35;16.63;;;9.20;99.90;;;;;;5014728;28;20193;-82
2023/05/14 00:35:34;;;;;;;42.65;17.20;;;;;;;;;;5014485;28;20228;-83
2023/05/14 00:38:01;;;;;;;46.72;17.23;;;8.60;99.90;;;;;;5014698;28;20201;-84
2023/05/14 00:40:27;;;;;;;40.90;15.68;;;9.10;99.90;;;;;;5014662;28;20291;-83
2023/05/14 00:42:53;;;;;;;47.13;17.53;;;8.60;99.90;;;;;;5014458;28;20616;-83
2023/05/14 00:45:19;;;;;;;48.80;16.38;;;9.00;99.90;;;;;;5014367;28;20215;-83
2023/05/14 00:47:46;;;;;;;33.30;15.23;;;9.00;99.90;;;;;;5018011;28;20193;-82
2023/05/14 00:50:13;;;;;;;37.30;14.48;;;8.60;99.90;;;;;;5019151;28;20237;-83
2023/05/14 00:52:40;;;;;;;52.97;16.13;;;;;;;;;;5021106;28;20177;-82
2023/05/14 00:55:07;;;;;;;40.72;17.13;;;8.90;99.90;;;;;;5020936;28;20238;-83
2023/05/14 00:57:35;;;;;;;35.37;15.97;;;8.90;99.90;;;;;;5039015;28;20168;-83
2023/05/14 01:00:02;;;;;;;36.13;16.23;;;8.80;99.90;;;;;;5038039;28;20161;-82
2023/05/14 01:02:28;;;;;;;38.73;15.70;;;;;;;;;;5038244;28;20165;-83
2023/05/14 01:04:54;;;;;;;43.22;17.80;;;8.90;99.90;;;;;;5031779;28;20277;-83
2023/05/14 01:07:26;;;;;;;45.88;17.38;;;8.90;99.90;;;;;;5018029;28;20189;-82
2023/05/14 01:10:01;;;;;;;40.13;16.77;;;9.00;99.90;;;;;;5025489;28;20172;-83
2023/05/14 01:12:36;;;;;;;51.85;16.65;;;8.80;99.90;;;;;;5038706;28;20216;-83
2023/05/14 01:15:18;;;;;;;43.10;15.50;;;8.70;99.90;;;;;;5054120;28;20236;-82
2023/05/14 01:17:59;;;;;;;35.27;13.03;;;8.60;99.90;;;;;;5038576;28;20171;-83
2023/05/14 01:20:26;;;;;;;31.60;14.83;;;8.30;99.90;;;;;;5037408;28;20200;-82
2023/05/14 01:22:51;;;;;;;40.80;15.47;;;8.50;99.90;;;;;;5017338;28;20205;-81
2023/05/14 01:25:17;;;;;;;38.53;15.67;;;;;;;;;;5013374;28;20529;-82
2023/05/14 01:28:13;;;;;;;45.10;16.67;;;8.60;99.90;;;;;;5014061;28;20239;-81
2023/05/14 01:31:05;;;;;;;34.22;14.02;;;8.50;99.90;;;;;;5014413;28;20162;-82
2023/05/14 01:33:34;;;;;;;36.05;12.82;;;8.40;99.90;;;;;;5029950;28;20195;-83
2023/05/14 01:36:00;;;;;;;32.80;13.17;;;8.40;99.90;;;;;;5014653;28;20181;-82
2023/05/14 01:38:30;;;;;;;38.77;15.03;;;8.40;99.90;;;;;;5013487;28;20193;-82
2023/05/14 01:40:56;;;;;;;33.93;14.37;;;8.40;99.90;;;;;;5014979;28;20280;-83
2023/05/14 01:43:23;;;;;;;39.23;14.60;;;8.40;99.90;;;;;;5018310;28;20209;-82
2023/05/14 01:45:48;;;;;;;36.47;15.83;;;8.30;99.90;;;;;;5022784;28;20663;-81
2023/05/14 01:48:14;;;;;;;35.30;13.57;;;8.30;99.90;;;;;;5023690;28;20192;-83
2023/05/14 01:50:40;;;;;;;37.07;14.57;;;8.30;99.90;;;;;;5040730;28;20634;-82
2023/05/14 01:53:06;;;;;;;35.87;14.00;;;8.30;99.90;;;;;;5009199;28;20205;-82
2023/05/14 01:55:32;;;;;;;31.60;12.83;;;8.30;99.90;;;;;;5036386;28;20181;-83
2023/05/14 01:57:57;;;;;;;31.47;13.20;;;8.20;99.90;;;;;;5014634;28;20177;-83
2023/05/14 02:00:26;;;;;;;31.13;12.83;;;8.20;99.90;;;;;;5013613;28;20184;-82
2023/05/14 02:02:52;;;;;;;22.13;10.53;;;8.20;99.90;;;;;;5014286;28;20232;-82
2023/05/14 02:05:18;;;;;;;30.47;11.77;;;8.20;99.90;;;;;;5013936;28;20643;-82
2023/05/14 02:07:44;;;;;;;27.30;12.87;;;8.10;99.90;;;;;;5013863;28;20173;-83
2023/05/14 02:10:10;;;;;;;28.50;12.67;;;8.10;99.90;;;;;;5014007;28;20188;-82
2023/05/14 02:12:35;;;;;;;37.40;12.60;;;8.10;99.90;;;;;;5012475;28;20619;-83
2023/05/14 02:15:02;;;;;;;28.47;11.47;;;8.10;99.90;;;;;;5012594;28;20243;-83
2023/05/14 02:17:28;;;;;;;29.83;12.23;;;8.10;99.90;;;;;;5013407;28;20193;-83
2023/05/14 02:19:54;;;;;;;30.50;12.37;;;8.10;99.90;;;;;;5013231;28;20181;-83
2023/05/14 02:22:19;;;;;;;30.73;12.43;;;8.00;99.90;;;;;;5011829;28;20263;-83
2023/05/14 02:24:45;;;;;;;26.37;11.30;;;;;;;;;;5012292;28;20283;-83
2023/05/14 02:27:12;;;;;;;24.77;10.87;;;7.90;99.90;;;;;;5013237;28;20177;-83
2023/05/14 02:29:38;;;;;;;27.33;10.30;;;7.90;99.90;;;;;;5013613;28;20208;-83
2023/05/14 02:32:04;;;;;;;33.67;11.87;;;7.90;99.90;;;;;;5029318;28;20181;-83
2023/05/14 02:34:30;;;;;;;26.17;10.73;;;7.90;99.90;;;;;;5016997;28;20216;-83
2023/05/14 02:36:56;;;;;;;29.73;11.50;;;;;;;;;;5037487;28;20165;-84
2023/05/14 02:39:21;;;;;;;26.93;10.23;;;7.90;99.90;;;;;;5032743;28;20623;-83
2023/05/14 02:41:47;;;;;;;24.50;11.07;;;;;;;;;;4999383;28;20269;-84
2023/05/14 02:44:13;;;;;;;22.83;10.93;;;7.80;99.90;;;;;;5016681;28;20216;-84
2023/05/14 02:46:39;;;;;;;28.93;10.83;;;7.80;99.90;;;;;;5015781;28;20551;-84
2023/05/14 02:49:04;;;;;;;29.83;9.80;;;;;;;;;;5017128;28;20190;-83
2023/05/14 02:51:30;;;;;;;18.80;9.53;;;7.80;99.90;;;;;;5016647;28;20256;-83
2023/05/14 02:53:56;;;;;;;25.43;10.60;;;;;;;;;;5016640;28;20190;-83
2023/05/14 02:56:22;;;;;;;18.73;9.50;;;8.20;99.90;;;;;;5015682;28;20188;-83
2023/05/14 02:58:47;;;;;;;21.23;9.43;;;7.70;99.90;;;;;;5015324;28;20245;-83
2023/05/14 03:01:13;;;;;;;26.10;11.10;;;;;;;;;;4998801;28;20638;-83
2023/05/14 03:03:39;;;;;;;24.97;10.67;;;;;;;;;;5016575;28;20205;-83
2023/05/14 03:06:05;;;;;;;18.83;9.37;;;7.90;99.90;;;;;;5016356;28;20193;-83
2023/05/14 03:08:31;;;;;;;32.50;10.67;;;;;;;;;;5016701;28;20185;-84
2023/05/14 03:10:57;;;;;;;26.77;11.00;;;7.80;99.90;;;;;;5016195;28;20273;-83
2023/05/14 03:13:23;;;;;;;24.87;11.23;;;;;;;;;;5016519;28;20641;-83
2023/05/14 03:15:53;;;;;;;31.33;11.47;;;;;;;;;;5015385;28;20189;-83
2023/05/14 03:18:19;;;;;;;32.40;11.27;;;8.00;99.90;;;;;;5016203;28;20256;-83
2023/05/14 03:20:45;;;;;;;33.13;13.40;;;8.10;99.90;;;;;;5031480;28;20189;-83
2023/05/14 03:23:11;;;;;;;26.13;13.10;;;8.10;99.90;;;;;;5014797;28;20212;-83
2023/05/14 03:25:36;;;;;;;27.17;14.27;;;8.10;99.90;;;;;;5014840;28;20195;-83
2023/05/14 03:28:03;;;;;;;36.57;15.80;;;8.10;99.90;;;;;;5016410;28;20186;-83
2023/05/14 03:30:28;;;;;;;30.90;13.60;;;8.20;99.90;;;;;;5014624;28;20189;-83
2023/05/14 03:32:54;;;;;;;29.70;14.50;;;8.20;99.90;;;;;;5014801;28;20185;-82
2023/05/14 03:35:20;;;;;;;29.27;12.37;;;8.30;99.90;;;;;;4998236;28;20552;-81
2023/05/14 03:37:46;;;;;;;26.17;12.23;;;8.30;99.90;;;;;;5015715;28;20185;-82
2023/05/14 03:40:11;;;;;;;30.20;11.87;;;8.30;99.90;;;;;;5015949;28;20754;-83
2023/05/14 03:42:37;;;;;;;25.40;11.77;;;8.40;99.90;;;;;;4981983;28;20181;-82
2023/05/14 03:45:03;;;;;;;25.90;10.90;;;8.40;99.90;;;;;;5014573;28;20185;-82
2023/05/14 03:47:29;;;;;;;26.63;12.53;;;8.50;99.90;;;;;;5014197;28;20585;-82
2023/05/14 03:49:55;;;;;;;26.92;11.95;;;8.60;99.90;;;;;;5014334;28;20538;-82
2023/05/14 03:52:21;;;;;;;31.87;12.80;;;8.70;99.90;;;;;;5030009;28;20178;-83
2023/05/14 03:54:47;;;;;;;29.25;11.80;;;8.50;99.90;;;;;;4997929;28;20647;-82
2023/05/14 03:57:12;;;;;;;25.20;10.67;;;8.80;99.90;;;;;;4997921;28;20319;-82
2023/05/14 03:59:38;;;;;;;24.13;10.47;;;8.90;99.90;;;;;;4998049;28;20174;-83
2023/05/14 04:02:03;;;;;;;23.37;10.37;;;8.90;99.90;;;;;;5031015;28;20188;-83
2023/05/14 04:04:29;;;;;;;15.37;8.30;;;9.00;99.90;;;;;;5013790;28;20666;-82
2023/05/14 04:06:55;;;;;;;19.25;9.02;;;9.00;99.90;;;;;;5014469;28;20192;-83
2023/05/14 04:09:20;;;;;;;14.43;8.20;;;9.10;99.90;;;;;;4997709;28;20188;-83
2023/05/14 04:11:46;;;;;;;11.27;7.45;;;9.20;99.90;;;;;;5014778;28;20248;-82
2023/05/14 04:14:11;;;;;;;14.55;7.55;;;9.40;99.90;;;;;;4997634;28;20655;-82
2023/05/14 04:16:37;;;;;;;18.90;8.57;;;9.60;99.90;;;;;;5015073;28;20643;-83
2023/05/14 04:19:04;;;;;;;23.63;8.23;;;9.70;99.90;;;;;;5013385;28;20177;-83
2023/05/14 04:21:30;;;;;;;15.17;7.13;;;9.70;99.90;;;;;;5014800;28;20191;-83
2023/05/14 04:23:56;;;;;;;18.50;7.90;;;9.90;99.90;;;;;;5015152;28;20201;-83
2023/05/14 04:26:21;;;;;;;17.35;6.68;;;10.00;99.90;;;;;;5013354;28;20638;-83
2023/05/14 04:28:48;;;;;;;21.30;8.38;;;10.10;99.90;;;;;;5021889;28;20189;-81
2023/05/14 04:31:14;;;;;;;19.75;7.25;;;10.20;99.90;;;;;;4999787;28;20230;-82
2023/05/14 04:33:40;;;;;;;10.63;6.03;;;10.30;99.90;;;;;;5030134;28;20208;-83
2023/05/14 04:36:07;;;;;;;15.52;6.95;;;10.50;99.90;;;;;;4998090;28;20664;-83
2023/05/14 04:38:32;;;;;;;11.98;7.03;;;10.60;99.90;;;;;;5014151;28;20181;-83
2023/05/14 04:40:58;;;;;;;17.13;7.80;;;10.70;99.90;;;;;;5014863;28;20251;-83
2023/05/14 04:43:24;;;;;;;10.65;6.03;;;10.90;99.90;;;;;;5016148;28;20250;-83
2023/05/14 04:45:51;;;;;;;15.10;6.57;;;11.00;99.90;;;;;;5013683;28;20189;-82
2023/05/14 04:48:17;;;;;;;10.90;6.00;;;11.10;99.90;;;;;;5015870;28;20191;-83
2023/05/14 04:50:43;;;;;;;14.80;6.38;;;11.30;99.90;;;;;;5014451;28;20264;-83
2023/05/14 04:53:09;;;;;;;10.85;6.65;;;11.40;99.90;;;;;;5013480;28;20189;-83
2023/05/14 04:55:35;;;;;;;12.05;5.68;;;11.50;99.90;;;;;;5013342;28;20271;-83
2023/05/14 04:58:01;;;;;;;10.82;6.13;;;11.60;99.90;;;;;;5013182;28;20268;-83
2023/05/14 05:00:27;;;;;;;10.00;5.25;;;11.90;99.90;;;;;;4998043;28;20169;-82
2023/05/14 05:02:53;;;;;;;10.23;5.80;;;12.00;99.90;;;;;;4998738;28;20235;-82
2023/05/14 05:05:19;;;;;;;8.18;5.47;;;12.20;99.90;;;;;;5014303;28;20611;-82
2023/05/14 05:07:45;;;;;;;11.02;5.57;;;12.30;99.90;;;;;;5014784;28;20205;-83
2023/05/14 05:10:10;;;;;;;11.57;5.22;;;12.50;99.90;;;;;;4997443;28;20217;-83
2023/05/14 05:12:36;;;;;;;10.25;4.97;;;12.60;99.90;;;;;;5013821;28;20185;-81
2023/05/14 05:15:02;;;;;;;9.65;4.72;;;12.80;99.90;;;;;;5014920;28;20666;-83
2023/05/14 05:17:28;;;;;;;13.30;5.13;;;13.10;99.90;;;;;;5014264;28;20235;-83
2023/05/14 05:19:54;;;;;;;9.88;5.00;;;13.20;99.90;;;;;;5013965;28;20185;-83
2023/05/14 05:22:20;;;;;;;11.10;4.18;;;13.20;99.90;;;;;;5014347;28;20185;-82
2023/05/14 05:24:46;;;;;;;5.85;3.97;;;;;;;;;;5014016;28;20207;-82
2023/05/14 05:27:12;;;;;;;5.00;3.30;;;13.90;99.90;;;;;;5013137;28;20192;-82
2023/05/14 05:29:38;;;;;;;5.43;3.17;;;;;;;;;;4996358;28;20537;-82
2023/05/14 05:32:04;;;;;;;6.50;3.50;;;;;;;;;;5013873;28;20199;-82
2023/05/14 05:34:30;;;;;;;6.10;3.40;;;13.90;99.90;;;;;;5014104;28;20631;-83
2023/05/14 05:36:56;;;;;;;4.95;3.25;;;;;;;;;;5012570;28;20280;-83
2023/05/14 05:39:21;;;;;;;5.75;3.45;;;14.20;99.90;;;;;;5012708;28;20184;-83
2023/05/14 05:41:47;;;;;;;6.85;3.53;;;14.30;99.30;;;;;;4995820;28;20594;-81
2023/05/14 05:44:13;;;;;;;6.10;3.40;;;14.50;97.70;;;;;;5012984;28;20580;-82
2023/05/14 05:46:38;;;;;;;4.90;3.30;;;14.60;97.40;;;;;;5011600;28;20239;-82
2023/05/14 05:49:04;;;;;;;5.63;3.58;;;14.70;96.90;;;;;;4980643;28;20589;-81
2023/05/14 05:51:30;;;;;;;5.75;3.70;;;;;;;;;;4993330;28;20193;-81
2023/05/14 05:53:56;;;;;;;6.57;3.10;;;14.90;96.40;;;;;;4990689;28;20277;-79
2023/05/14 05:56:21;;;;;;;3.90;2.83;;;15.10;95.90;;;;;;4992134;28;20628;-81
2023/05/14 05:58:53;;;;;;;4.28;3.03;;;15.20;95.40;;;;;;4993126;28;20181;-80
2023/05/14 06:01:18;;;;;;;11.27;4.80;;;15.20;95.10;;;;;;4992355;28;20194;-79
2023/05/14 06:03:44;;;;;;;6.40;4.18;;;15.40;94.10;;;;;;5007044;28;20713;-80
2023/05/14 06:06:10;;;;;;;10.27;3.50;;;;;;;;;;4992256;28;20746;-81
2023/05/14 06:08:36;;;;;;;6.97;3.17;;;15.50;93.00;;;;;;4991806;28;21657;-80
2023/05/14 06:11:01;;;;;;;6.07;3.30;;;15.60;91.70;;;;;;4992676;28;20182;-80
2023/05/14 06:13:27;;;;;;;6.57;3.45;;;15.60;92.80;;;;;;5008388;28;20197;-82
2023/05/14 06:15:53;;;;;;;4.18;2.55;;;15.80;92.40;;;;;;5020959;28;20209;-81
2023/05/14 06:18:18;;;;;;;4.05;2.83;;;16.20;93.10;;;;;;5000089;28;20536;-82
2023/05/14 06:20:44;;;;;;;5.28;2.97;;;16.00;91.20;;;;;;4995171;28;20507;-81
2023/05/14 06:23:11;;;;;;;4.03;2.72;;;16.10;89.10;;;;;;4996886;28;20252;-80
2023/05/14 06:25:36;;;;;;;7.10;2.90;;;16.20;89.30;;;;;;4978380;28;20620;-81
2023/05/14 06:28:02;;;;;;;5.68;2.85;;;16.30;87.90;;;;;;4996408;28;20268;-79
2023/05/14 06:30:28;;;;;;;5.45;3.13;;;16.30;87.50;;;;;;4995789;28;20174;-80
2023/05/14 06:32:54;;;;;;;3.90;2.63;;;16.40;87.10;;;;;;4995391;28;20232;-81
2023/05/14 06:35:19;;;;;;;5.15;2.60;;;16.60;85.80;;;;;;4995953;28;20188;-81
2023/05/14 06:37:46;;;;;;;3.15;2.20;;;16.90;83.80;;;;;;4979202;28;20201;-81
2023/05/14 06:40:14;;;;;;;8.98;2.80;;;16.80;82.80;;;;;;5000128;28;20225;-81
2023/05/14 06:42:40;;;;;;;4.13;2.53;;;17.00;84.00;;;;;;5000155;28;20236;-82
2023/05/14 06:45:06;;;;;;;4.47;2.58;;;17.10;80.40;;;;;;4999842;28;20194;-81
2023/05/14 06:47:32;;;;;;;4.97;2.13;;;17.20;79.10;;;;;;4996863;28;20285;-81
2023/05/14 06:49:58;;;;;;;3.58;2.15;;;17.30;76.50;;;;;;5018137;28;20181;-82
2023/05/14 06:52:25;;;;;;;4.00;2.28;;;17.40;74.00;;;;;;5019255;28;20241;-82
2023/05/14 06:54:51;;;;;;;3.03;1.85;;;17.50;73.90;;;;;;5018914;28;20185;-82
2023/05/14 06:57:17;;;;;;;4.10;2.13;;;17.60;74.70;;;;;;5016728;28;20213;-81
2023/05/14 06:59:42;;;;;;;2.75;2.10;;;17.60;76.50;;;;;;4999175;28;20194;-81
2023/05/14 07:02:08;;;;;;;3.78;2.25;;;17.80;74.60;;;;;;4998157;28;20203;-80
2023/05/14 07:04:35;;;;;;;2.15;1.60;;;17.90;71.30;;;;;;4994358;28;20206;-81
2023/05/14 07:07:00;;;;;;;6.40;2.42;;;17.90;69.70;;;;;;5012559;28;20208;-82
2023/05/14 07:09:26;;;;;;;4.20;2.38;;;17.80;70.00;;;;;;5019285;28;20186;-83
2023/05/14 07:11:52;;;;;;;2.35;1.60;;;17.80;68.40;;;;;;5010892;28;20194;-82
2023/05/14 07:14:17;;;;;;;3.95;1.98;;;17.90;69.20;;;;;;4987335;28;20209;-80
2023/05/14 07:16:44;;;;;;;5.00;2.10;;;18.00;68.90;;;;;;5002845;28;20185;-80
2023/05/14 07:19:10;;;;;;;3.05;1.83;;;18.10;70.80;;;;;;5007501;28;20194;-81
2023/05/14 07:21:35;;;;;;;2.83;1.50;;;18.10;69.10;;;;;;4996195;28;20331;-82
2023/05/14 07:24:01;;;;;;;3.90;1.92;;;18.20;67.40;;;;;;4976522;28;20352;-83
2023/05/14 07:26:27;;;;;;;2.45;2.15;;;18.20;68.60;;;;;;4993155;28;20659;-83
2023/05/14 07:28:56;;;;;;;3.08;2.10;;;18.20;69.40;;;;;;4981446;28;20197;-83
2023/05/14 07:31:22;;;;;;;3.80;1.75;;;18.20;69.30;;;;;;4996795;28;20194;-81
2023/05/14 07:33:48;;;;;;;4.72;1.83;;;18.30;67.50;;;;;;4993880;28;20565;-80
2023/05/14 07:36:14;;;;;;;5.78;2.05;;;18.40;67.20;;;;;;4992899;28;20186;-82
2023/05/14 07:38:40;;;;;;;5.32;2.63;;;18.30;68.10;;;;;;4993901;28;20678;-81
2023/05/14 07:41:06;;;;;;;2.20;1.70;;;18.10;69.60;;;;;;4995968;28;20234;-82
2023/05/14 07:43:32;;;;;;;3.25;2.00;;;18.40;67.00;;;;;;5008916;28;20559;-82
2023/05/14 07:45:58;;;;;;;2.08;1.83;;;18.40;67.90;;;;;;4993394;28;20758;-81
2023/05/14 07:48:24;;;;;;;2.92;1.95;;;18.50;66.90;;;;;;4994098;28;20277;-82
2023/05/14 07:50:50;;;;;;;3.17;1.90;;;18.60;68.70;;;;;;5008156;28;20190;-81
2023/05/14 07:53:16;;;;;;;2.80;2.22;;;18.80;67.40;;;;;;4992142;28;20204;-83
2023/05/14 07:55:43;;;;;;;3.55;2.03;;;19.00;66.70;;;;;;4998184;28;20193;-82
2023/05/14 07:58:09;;;;;;;2.80;2.00;;;19.10;64.70;;;;;;4981340;28;20200;-81
2023/05/14 08:00:35;;;;;;;2.05;1.70;;;19.20;63.90;;;;;;5000885;28;20729;-82
2023/05/14 08:03:00;;;;;;;2.05;1.55;;;19.20;65.70;;;;;;4992227;28;20288;-81
2023/05/14 08:05:26;;;;;;;3.13;2.08;;;19.30;63.20;;;;;;4996544;28;20198;-81
2023/05/14 08:07:58;;;;;;;3.90;2.10;;;19.30;61.90;;;;;;4992533;28;20244;-83
2023/05/14 08:10:23;;;;;;;2.53;1.73;;;19.50;62.40;;;;;;4992628;28;20197;-83
2023/05/14 08:12:49;;;;;;;3.50;1.98;;;19.70;62.00;;;;;;4992269;28;20190;-84
2023/05/14 08:15:15;;;;;;;3.75;2.13;;;19.80;59.30;;;;;;4992922;28;20213;-82
2023/05/14 08:17:41;;;;;;;2.95;2.08;;;20.00;58.90;;;;;;5008942;28;20186;-82
2023/05/14 08:20:08;;;;;;;1.50;1.40;;;20.00;57.10;;;;;;4994017;28;20252;-83
2023/05/14 08:22:34;;;;;;;2.90;1.70;;;20.10;57.20;;;;;;4993187;28;20208;-82
2023/05/14 08:25:01;;;;;;;2.38;1.75;;;20.10;55.30;;;;;;4991671;28;20257;-84
2023/05/14 08:27:27;;;;;;;6.25;1.40;;;20.10;56.50;;;;;;4992505;28;20205;-82
2023/05/14 08:29:53;;;;;;;3.53;1.83;;;20.20;55.40;;;;;;4992515;28;20647;-83
2023/05/14 08:32:18;;;;;;;3.75;1.77;;;20.20;55.60;;;;;;4992667;28;20182;-83
2023/05/14 08:34:44;;;;;;;3.05;1.90;;;20.20;54.90;;;;;;4991966;28;20197;-82
2023/05/14 08:37:09;;;;;;;5.43;1.73;;;20.20;56.40;;;;;;4991919;28;20189;-83
2023/05/14 08:39:35;;;;;;;2.50;1.52;;;20.20;57.40;;;;;;4993315;28;20189;-83
2023/05/14 08:42:03;;;;;;;3.67;1.63;;;20.30;58.70;;;;;;4993521;28;20189;-83
2023/05/14 08:44:55;;;;;;;2.08;1.63;;;20.40;58.80;;;;;;4998549;28;20217;-82
2023/05/14 08:47:22;;;;;;;4.15;1.88;;;20.50;57.80;;;;;;4986125;28;20193;-83
2023/05/14 08:49:56;;;;;;;1.85;1.67;;;20.60;56.70;;;;;;4992560;28;20174;-82
2023/05/14 08:52:22;;;;;;;5.07;2.55;;;20.50;56.50;;;;;;4996303;28;20662;-81
2023/05/14 08:54:49;;;;;;;5.55;1.83;;;20.60;57.90;;;;;;4994275;28;20178;-81
2023/05/14 08:57:17;;;;;;;2.75;1.65;;;20.70;57.00;;;;;;4979380;28;20188;-84
2023/05/14 08:59:43;;;;;;;2.47;1.70;;;20.80;56.10;;;;;;4995394;28;20186;-81
2023/05/14 09:02:10;;;;;;;5.65;1.98;;;20.80;56.50;;;;;;4993710;28;20188;-82
2023/05/14 09:04:36;;;;;;;2.45;1.60;;;20.90;57.00;;;;;;4995363;28;20256;-82
2023/05/14 09:07:02;;;;;;;2.30;1.45;;;20.90;56.50;;;;;;4986032;28;20224;-82
2023/05/14 09:09:29;;;;;;;4.88;1.83;;;21.00;55.60;;;;;;4974126;28;20214;-82
2023/05/14 09:11:54;;;;;;;1.50;1.40;;;21.10;56.30;;;;;;4994797;28;20309;-83
2023/05/14 09:14:22;;;;;;;3.60;1.52;;;21.20;57.00;;;;;;4965228;28;20221;-82
2023/05/14 09:16:50;;;;;;;3.03;2.00;;;21.10;56.30;;;;;;4987466;28;20550;-83
2023/05/14 09:19:17;;;;;;;3.05;2.00;;;21.20;57.40;;;;;;4974497;28;20218;-84
2023/05/14 09:21:44;;;;;;;2.15;1.63;;;21.40;57.30;;;;;;4991461;28;20209;-82
2023/05/14 09:24:21;;;;;;;2.92;2.00;;;21.50;55.60;;;;;;4995258;28;20224;-83
2023/05/14 09:26:55;;;;;;;3.13;2.00;;;21.60;55.00;;;;;;4997652;28;20189;-83
2023/05/14 09:29:22;;;;;;;5.28;1.80;;;21.60;54.90;;;;;;5009826;28;20182;-82
2023/05/14 09:31:50;;;;;;;2.25;1.40;;;21.80;54.70;;;;;;5004651;28;20211;-81
2023/05/14 09:34:31;;;;;;;4.55;1.83;;;21.90;54.40;;;;;;5004202;28;20190;-84
2023/05/14 09:37:00;;;;;;;2.63;1.67;;;21.90;52.60;;;;;;5009345;28;20174;-85
2023/05/14 09:39:26;;;;;;;2.55;1.60;;;21.80;51.80;;;;;;5011270;28;20178;-82
2023/05/14 09:41:52;;;;;;;3.40;1.67;;;21.60;52.20;;;;;;4999767;28;20312;-83
2023/05/14 09:44:18;;;;;;;2.78;1.70;;;21.50;53.60;;;;;;4994395;28;20255;-81
2023/05/14 09:46:45;;;;;;;2.53;1.50;;;21.50;52.70;;;;;;5011703;28;20220;-83
2023/05/14 09:49:11;;;;;;;4.70;1.98;;;21.60;53.70;;;;;;5010309;28;20658;-82
2023/05/14 09:51:37;;;;;;;2.70;1.75;;;21.80;55.40;;;;;;5005238;28;20173;-82
2023/05/14 09:54:04;;;;;;;2.42;1.83;;;22.00;53.40;;;;;;5016618;28;20205;-82
2023/05/14 09:56:31;;;;;;;5.45;2.15;;;22.00;52.30;;;;;;5005068;28;20649;-81
2023/05/14 09:58:57;;;;;;;1.85;1.40;;;22.00;52.10;;;;;;4994560;28;20201;-81
2023/05/14 10:01:24;;;;;;;2.65;1.70;;;22.10;52.10;;;;;;4993007;28;20182;-82
2023/05/14 10:03:50;;;;;;;2.50;1.63;;;22.10;51.90;;;;;;5008248;28;20304;-81
2023/05/14 10:06:19;;;;;;;2.72;1.70;;;22.10;52.90;;;;;;5003255;28;20206;-82
2023/05/14 10:08:48;;;;;;;3.15;1.98;;;22.10;52.30;;;;;;4992626;28;20174;-81
2023/05/14 10:11:24;;;;;;;5.03;1.92;;;22.10;51.70;;;;;;4992485;28;20264;-82
2023/05/14 10:14:17;;;;;;;3.05;1.90;;;22.10;51.30;;;;;;4992605;28;20193;-82
2023/05/14 10:16:48;;;;;;;2.35;1.85;;;22.30;52.40;;;;;;4992111;28;20186;-81
2023/05/14 10:19:16;;;;;;;4.95;2.13;;;22.30;52.00;;;;;;4993151;28;20188;-81
2023/05/14 10:21:47;;;;;;;3.67;1.55;;;22.20;49.90;;;;;;4992628;28;20224;-84
2023/05/14 10:24:14;;;;;;;5.07;2.00;;;22.20;50.90;;;;;;4992453;28;20269;-83
2023/05/14 10:26:40;;;;;;;2.67;2.17;;;22.30;51.10;;;;;;4977738;28;20706;-79
2023/05/14 10:29:09;;;;;;;4.18;2.15;;;22.00;50.50;;;;;;4992188;28;20273;-83
2023/05/14 10:31:53;;;;;;;1.92;1.48;;;22.10;51.20;;;;;;4992544;28;20293;-81
2023/05/14 10:34:40;;;;;;;2.47;1.70;;;22.30;49.70;;;;;;4980270;28;20190;-83
2023/05/14 10:37:14;;;;;;;2.10;1.90;;;22.30;51.10;;;;;;4992336;28;20663;-84
2023/05/14 10:39:52;;;;;;;6.13;2.00;;;22.10;49.60;;;;;;4995398;28;20178;-83
2023/05/14 10:42:23;;;;;;;2.33;1.83;;;22.30;50.90;;;;;;4991867;28;20229;-81
2023/05/14 10:44:57;;;;;;;3.80;2.15;;;22.30;51.90;;;;;;4981489;28;20218;-81
2023/05/14 10:47:23;;;;;;;2.53;1.83;;;22.50;52.10;;;;;;4993085;28;20213;-80
2023/05/14 10:49:52;;;;;;;2.92;1.90;;;22.90;51.90;;;;;;5004107;28;20197;-82
2023/05/14 10:52:18;;;;;;;2.13;1.92;;;23.00;50.90;;;;;;4988794;28;20202;-80
2023/05/14 10:55:01;;;;;;;2.72;1.98;;;22.90;50.40;;;;;;4996022;28;20655;-80
2023/05/14 10:57:30;;;;;;;2.40;1.83;;;22.90;52.70;;;;;;4988729;28;20616;-81
2023/05/14 10:59:58;;;;;;;3.00;2.13;;;22.90;51.30;;;;;;4992006;28;20227;-83
2023/05/14 11:02:31;;;;;;;3.88;1.60;;;22.70;52.10;;;;;;4993782;28;20185;-80
2023/05/14 11:05:03;;;;;;;4.15;1.70;;;22.50;51.20;;;;;;4994805;28;20212;-80
2023/05/14 11:07:31;;;;;;;1.58;1.40;;;22.60;51.50;;;;;;4994994;28;20194;-81
2023/05/14 11:10:01;;;;;;;1.95;1.20;;;22.60;51.10;;;;;;4993569;28;20174;-81
2023/05/14 11:12:28;;;;;;;4.82;1.63;;;22.80;51.00;;;;;;4995115;28;20186;-81
2023/05/14 11:14:56;;;;;;;2.25;1.55;;;22.80;50.30;;;;;;4994305;28;20276;-83
2023/05/14 11:17:26;;;;;;;2.72;1.95;;;22.90;51.10;;;;;;4994622;28;20186;-82
2023/05/14 11:19:54;;;;;;;2.40;1.73;;;23.00;50.30;;;;;;4994789;28;20220;-80
2023/05/14 11:22:20;;;;;;;3.03;1.67;;;23.20;50.40;;;;;;4994784;28;20190;-82
2023/05/14 11:24:45;;;;;;;2.20;1.70;;;23.40;48.70;;;;;;4979670;28;20214;-81
2023/05/14 11:27:11;;;;;;;7.10;1.88;;;23.20;47.90;;;;;;4990902;28;20644;-80
2023/05/14 11:29:37;;;;;;;5.47;1.55;;;23.00;48.90;;;;;;4999760;28;20194;-80
2023/05/14 11:32:05;;;;;;;2.80;1.73;;;23.10;48.70;;;;;;4994470;28;20232;-80
2023/05/14 11:34:31;;;;;;;1.50;1.40;;;23.30;49.40;;;;;;4993996;28;20221;-80
2023/05/14 11:36:56;;;;;;;2.88;2.00;;;23.30;50.10;;;;;;4994689;28;20190;-81
2023/05/14 11:39:23;;;;;;;2.63;1.65;;;23.50;49.60;;;;;;5014836;28;20186;-79
2023/05/14 11:41:48;;;;;;;2.90;1.58;;;23.40;48.40;;;;;;4997059;28;20298;-79
2023/05/14 11:44:14;;;;;;;2.30;1.75;;;23.10;48.60;;;;;;5012781;28;20213;-82
2023/05/14 11:46:40;;;;;;;3.60;2.25;;;23.30;50.60;;;;;;4997039;28;20789;-79
2023/05/14 11:49:06;;;;;;;5.95;2.17;;;23.40;50.00;;;;;;5016342;28;20185;-82
2023/05/14 11:51:31;;;;;;;4.38;1.95;;;23.30;49.20;;;;;;4998436;28;20186;-81
2023/05/14 11:54:00;;;;;;;2.78;1.92;;;23.40;51.60;;;;;;5005785;28;20196;-80
2023/05/14 11:56:26;;;;;;;3.33;1.60;;;23.20;47.30;;;;;;5009762;28;20182;-80
2023/05/14 11:58:57;;;;;;;2.92;1.45;;;23.30;49.50;;;;;;5003174;28;20186;-78
2023/05/14 12:01:23;;;;;;;2.45;1.50;;;23.30;48.00;;;;;;4995554;28;20186;-80
2023/05/14 12:03:49;;;;;;;2.92;1.88;;;23.30;48.60;;;;;;4996927;28;20209;-80
2023/05/14 12:06:15;;;;;;;4.65;1.77;;;23.00;48.50;;;;;;4993369;28;20198;-80
2023/05/14 12:08:40;;;;;;;2.80;1.40;;;23.10;48.40;;;;;;5002627;28;20182;-80
2023/05/14 12:11:08;;;;;;;2.50;1.75;;;23.20;48.20;;;;;;4994357;28;20565;-82
2023/05/14 12:13:35;;;;;;;6.00;1.90;;;23.30;49.30;;;;;;4995006;28;20194;-82
2023/05/14 12:16:01;;;;;;;3.00;1.48;;;23.40;48.30;;;;;;4995341;28;20270;-81
2023/05/14 12:18:31;;;;;;;2.53;1.73;;;23.20;47.80;;;;;;4994803;28;20184;-82
2023/05/14 12:21:04;;;;;;;1.85;1.40;;;23.00;47.50;;;;;;4995367;28;20190;-81
2023/05/14 12:23:31;;;;;;;1.48;1.20;;;23.00;48.10;;;;;;4997821;28;20205;-81
2023/05/14 12:26:05;;;;;;;2.00;1.20;;;23.00;47.90;;;;;;5017077;28;20173;-80
2023/05/14 12:28:32;;;;;;;1.83;1.52;;;23.10;46.90;;;;;;5016182;28;20208;-81
2023/05/14 12:30:58;;;;;;;2.72;1.65;;;23.10;48.50;;;;;;5006739;28;20213;-79
2023/05/14 12:33:26;;;;;;;2.92;1.40;;;23.30;48.70;;;;;;5000416;28;20204;-81
2023/05/14 12:35:52;;;;;;;1.50;1.20;;;23.40;47.10;;;;;;5016526;28;20209;-80
2023/05/14 12:38:19;;;;;;;1.92;1.50;;;23.50;47.00;;;;;;5019401;28;20189;-80
2023/05/14 12:40:44;;;;;;;2.90;1.20;;;23.50;47.80;;;;;;5018424;28;20225;-81
2023/05/14 12:43:10;;;;;;;1.55;1.30;;;23.50;47.40;;;;;;5008329;28;20218;-80
2023/05/14 12:45:36;;;;;;;2.78;1.20;;;23.50;47.30;;;;;;5011151;28;20195;-79
2023/05/14 12:48:02;;;;;;;1.60;1.10;;;23.40;47.50;;;;;;5007320;28;20166;-81
2023/05/14 12:50:28;;;;;;;3.22;1.20;;;23.00;47.90;;;;;;5017467;28;20201;-82